Time;durP1;ratioP1;P1;durP2;ratioP2;P2;SDS_P1;SDS_P2;PMS_P1;PMS_P2;Temp;Humidity;BMP_temperature;BMP_pressure;BME280_temperature;BME280_humidity;BME280_pressure;Samples;Min_cycle;Max_cycle;Signal;HPM_P1;HPM_P2
2021/08/29 00:02:19;;;;;;;8.52;6.30;;;;;;;14.75;77.85;99064.75;2621961;54;20026;-68
2021/08/29 00:04:50;;;;;;;6.97;5.93;;;;;;;14.78;77.71;99073.13;2623318;54;20045;-68
2021/08/29 00:07:19;;;;;;;5.93;5.32;;;;;;;14.81;77.86;99063.88;2621547;54;20038;-67
2021/08/29 00:09:51;;;;;;;6.75;5.10;;;;;;;14.85;78.32;99065.91;2618755;54;20034;-66
2021/08/29 00:12:21;;;;;;;8.80;6.60;;;;;;;14.87;78.28;99065.72;2618856;54;20038;-66
2021/08/29 00:14:51;;;;;;;7.18;5.95;;;;;;;14.83;78.17;99067.16;2618563;54;20038;-66
2021/08/29 00:17:20;;;;;;;12.35;5.72;;;;;;;14.86;78.54;99067.56;2618034;46;20509;-67
2021/08/29 00:19:50;;;;;;;8.27;6.38;;;;;;;14.84;78.12;99061.63;2618639;54;20018;-67
2021/08/29 00:22:19;;;;;;;9.55;6.30;;;;;;;14.88;78.56;99064.66;2618610;54;20053;-67
2021/08/29 00:24:52;;;;;;;6.70;6.00;;;;;;;14.90;78.56;99059.13;2618676;54;20062;-68
2021/08/29 00:27:21;;;;;;;7.70;5.80;;;;;;;14.93;78.57;99056.84;2618758;54;20034;-68
2021/08/29 00:29:51;;;;;;;7.95;6.10;;;;;;;14.95;78.14;99056.66;2618315;54;20038;-67
2021/08/29 00:32:21;;;;;;;9.35;6.28;;;;;;;14.98;78.05;99051.72;2619102;54;20023;-66
2021/08/29 00:34:50;;;;;;;9.02;6.07;;;;;;;14.98;78.32;99050.88;2621348;39;20411;-68
2021/08/29 00:37:20;;;;;;;6.55;5.68;;;;;;;14.99;78.52;99049.88;2620230;47;20034;-67
2021/08/29 00:39:52;;;;;;;7.63;5.78;;;;;;;14.98;78.21;99042.91;2618838;54;20026;-67
2021/08/29 00:42:22;;;;;;;7.30;6.00;;;;;;;14.82;78.57;99037.06;2618418;54;20171;-68
2021/08/29 00:44:53;;;;;;;8.25;6.03;;;;;;;14.77;78.76;99036.06;2618140;54;20042;-66
2021/08/29 00:47:23;;;;;;;6.40;5.78;;;;;;;14.77;79.00;99036.06;2617848;54;20023;-67
2021/08/29 00:49:53;;;;;;;7.47;6.10;;;;;;;14.75;79.27;99030.16;2618086;54;20133;-67
2021/08/29 00:52:22;;;;;;;8.45;6.03;;;;;;;14.74;78.92;99045.31;2618038;47;20046;-66
2021/08/29 00:54:55;;;;;;;7.63;6.82;;;;;;;14.72;79.24;99034.06;2618397;47;20038;-67
2021/08/29 00:57:39;;;;;;;8.55;6.53;;;;;;;14.67;79.29;99031.22;2617832;48;20033;-67
2021/08/29 01:00:11;;;;;;;8.48;7.53;;;;;;;14.68;79.31;99035.50;2618466;54;20057;-66
2021/08/29 01:02:46;;;;;;;10.32;6.95;;;;;;;14.64;79.95;99031.63;2618039;54;20034;-67
2021/08/29 01:05:22;;;;;;;8.45;7.28;;;;;;;14.65;80.29;99025.28;2618773;31;20587;-67
2021/08/29 01:08:17;;;;;;;8.88;7.97;;;;;;;14.64;79.93;99030.81;2617704;47;20042;-67
2021/08/29 01:10:59;;;;;;;8.35;7.50;;;;;;;14.59;80.11;99021.63;2618061;54;20026;-66
2021/08/29 01:13:37;;;;;;;8.82;7.75;;;;;;;14.50;80.51;99019.44;2617763;54;20023;-67
2021/08/29 01:16:10;;;;;;;9.48;7.13;;;;;;;14.48;80.80;99018.81;2618949;39;20533;-67
2021/08/29 01:18:53;;;;;;;9.38;7.82;;;;;;;14.48;80.91;99032.09;2617667;54;20041;-67
2021/08/29 01:21:27;;;;;;;9.77;7.15;;;;;;;14.47;81.26;99025.97;2618550;39;20446;-67
2021/08/29 01:24:04;;;;;;;10.75;7.82;;;;;;;14.54;81.00;99036.63;2618222;54;20057;-67
2021/08/29 01:26:48;;;;;;;9.98;8.15;;;;;;;14.59;81.42;99028.81;2617543;54;20031;-67
2021/08/29 01:29:25;;;;;;;9.73;7.43;;;;;;;14.62;81.40;99025.72;2618248;39;20120;-67
2021/08/29 01:31:55;;;;;;;8.70;7.35;;;;;;;14.60;81.17;99025.94;2617734;47;20041;-67
2021/08/29 01:34:26;;;;;;;7.72;6.45;;;;;;;14.67;81.43;99014.44;2617600;54;20037;-67
2021/08/29 01:37:22;;;;;;;10.10;7.72;;;;;;;14.70;81.30;99022.81;2618162;39;20456;-67
2021/08/29 01:39:53;;;;;;;8.95;7.07;;;;;;;14.67;81.38;99019.78;2617894;54;20258;-67
2021/08/29 01:42:28;;;;;;;8.25;7.35;;;;;;;14.68;81.21;99026.72;2618252;47;20580;-67
2021/08/29 01:45:01;;;;;;;9.20;7.70;;;;;;;14.67;81.26;99022.44;2617943;54;20030;-67
2021/08/29 01:47:32;;;;;;;8.40;7.50;;;;;;;14.63;81.74;99022.03;2617881;54;20034;-66
2021/08/29 01:50:02;;;;;;;8.52;7.53;;;;;;;14.63;81.80;99021.22;2617912;54;20038;-67
2021/08/29 01:52:32;;;;;;;8.90;7.20;;;;;;;14.63;81.47;99023.88;2618121;51;20045;-66
2021/08/29 01:55:29;;;;;;;8.68;7.40;;;;;;;14.67;81.44;99025.91;2617874;47;20074;-66
2021/08/29 01:58:08;;;;;;;8.23;7.30;;;;;;;14.66;81.95;99018.16;2617330;51;20034;-67
2021/08/29 02:00:51;;;;;;;9.82;6.90;;;;;;;14.63;81.64;99011.41;2617730;47;20534;-66
2021/08/29 02:03:25;;;;;;;7.93;7.18;;;;;;;14.70;81.93;99014.03;2617590;54;20038;-67
2021/08/29 02:06:15;;;;;;;8.25;6.70;;;;;;;14.73;81.35;99013.56;2617727;54;20042;-67
2021/08/29 02:08:51;;;;;;;7.50;6.68;;;;;;;14.71;81.45;99016.47;2618322;31;20502;-66
2021/08/29 02:11:24;;;;;;;7.60;6.75;;;;;;;14.73;81.57;99016.22;2617855;54;20146;-67
2021/08/29 02:13:59;;;;;;;7.93;6.28;;;;;;;14.69;81.28;99017.69;2617728;54;20119;-66
2021/08/29 02:16:37;;;;;;;8.32;6.82;;;;;;;14.72;81.91;99017.28;2617904;54;20039;-67
2021/08/29 02:19:07;;;;;;;5.93;5.20;;;;;;;14.70;81.74;99011.38;2617537;54;20040;-67
2021/08/29 02:21:38;;;;;;;6.53;5.93;;;;;;;14.71;81.92;99013.81;2618033;54;20042;-66
2021/08/29 02:24:10;;;;;;;6.45;5.85;;;;;;;14.74;81.81;99017.88;2618031;54;20114;-66
2021/08/29 02:26:41;;;;;;;7.47;5.70;;;;;;;14.77;81.19;99009.47;2617841;47;20034;-66
2021/08/29 02:29:19;;;;;;;6.30;5.70;;;;;;;14.78;81.67;99022.56;2618375;47;20029;-66
2021/08/29 02:31:53;;;;;;;6.22;5.63;;;;;;;14.73;81.70;99022.38;2618735;54;20031;-66
2021/08/29 02:34:25;;;;;;;6.13;5.53;;;;;;;14.72;81.99;99019.94;2618768;39;20418;-67
2021/08/29 02:37:02;;;;;;;5.90;5.40;;;;;;;14.73;81.21;99018.91;2617387;51;20034;-67
2021/08/29 02:39:44;;;;;;;6.35;5.15;;;;;;;14.74;81.41;99016.03;2618715;54;20033;-67
2021/08/29 02:42:17;;;;;;;5.88;5.38;;;;;;;14.74;81.40;99020.56;2619387;54;20027;-67
2021/08/29 02:44:53;;;;;;;6.57;5.40;;;;;;;14.74;81.54;99016.03;2618676;54;20034;-67
2021/08/29 02:47:26;;;;;;;6.53;5.90;;;;;;;14.76;81.28;99021.94;2618014;54;20027;-67
2021/08/29 02:49:56;;;;;;;6.93;5.30;;;;;;;14.79;81.01;99023.38;2618750;51;20030;-67
2021/08/29 02:52:26;;;;;;;8.25;5.65;;;;;;;14.80;81.32;99017.81;2619601;54;20037;-67
2021/08/29 02:54:59;;;;;;;7.32;6.40;;;;;;;14.80;81.10;99019.69;2618808;47;20050;-66
2021/08/29 02:57:34;;;;;;;7.85;6.38;;;;;;;14.78;80.52;99021.75;2618793;39;20433;-67
2021/08/29 03:00:30;;;;;;;6.43;5.82;;;;;;;14.73;80.87;99016.22;2618958;47;20107;-66
2021/08/29 03:03:11;;;;;;;6.95;6.20;;;;;;;14.71;81.13;99013.81;2618738;47;20030;-66
2021/08/29 03:05:41;;;;;;;6.68;5.47;;;;;;;14.73;80.92;99003.75;2618568;39;20490;-67
2021/08/29 03:08:12;;;;;;;6.80;6.13;;;;;;;14.76;80.99;99013.16;2618294;54;20038;-67
2021/08/29 03:10:42;;;;;;;7.22;6.50;;;;;;;14.73;81.03;99009.06;2618439;54;20045;-67
2021/08/29 03:13:16;;;;;;;7.05;6.43;;;;;;;14.69;80.65;99013.19;2618887;39;20430;-67
2021/08/29 03:15:51;;;;;;;8.15;7.35;;;;;;;14.67;81.03;99007.28;2618524;47;20033;-67
2021/08/29 03:18:48;;;;;;;8.05;6.85;;;;;;;14.67;80.87;99014.44;2618574;39;20445;-67
2021/08/29 03:21:39;;;;;;;9.32;6.63;;;;;;;14.60;80.64;99009.16;2619088;39;20441;-66
2021/08/29 03:24:10;;;;;;;8.82;7.47;;;;;;;14.63;81.13;99010.56;2618561;47;20046;-67
2021/08/29 03:26:43;;;;;;;8.13;7.18;;;;;;;14.57;80.73;99001.59;2618416;51;20026;-67
2021/08/29 03:29:31;;;;;;;8.50;7.70;;;;;;;14.51;80.77;99010.44;2618698;54;20042;-66
2021/08/29 03:32:01;;;;;;;8.75;7.78;;;;;;;14.51;81.15;99005.13;2618861;54;20042;-66
2021/08/29 03:34:37;;;;;;;7.95;6.90;;;;;;;14.54;81.02;99008.16;2618571;47;20045;-67
2021/08/29 03:37:07;;;;;;;9.07;8.15;;;;;;;14.53;80.77;99003.88;2618754;54;20026;-67
2021/08/29 03:39:46;;;;;;;8.82;8.02;;;;;;;14.53;80.79;98995.06;2619172;54;20038;-69
2021/08/29 03:42:19;;;;;;;8.02;7.22;;;;;;;14.54;81.01;98996.72;2621945;54;20038;-67
2021/08/29 03:44:54;;;;;;;9.38;8.38;;;;;;;14.56;81.15;98998.13;2622239;39;20415;-67
2021/08/29 03:47:25;;;;;;;8.43;7.63;;;;;;;14.58;81.20;98998.72;2618303;54;20031;-67
2021/08/29 03:49:58;;;;;;;8.60;7.75;;;;;;;14.58;80.64;98995.25;2618590;54;20023;-67
2021/08/29 03:52:34;;;;;;;9.35;7.72;;;;;;;14.63;81.00;98987.44;2618683;54;20026;-67
2021/08/29 03:55:31;;;;;;;7.90;7.18;;;;;;;14.64;80.57;98991.72;2618944;47;20058;-67
2021/08/29 03:58:02;;;;;;;8.68;7.78;;;;;;;14.63;80.75;98992.78;2619273;46;20049;-67
2021/08/29 04:00:42;;;;;;;9.50;8.38;;;;;;;14.59;80.84;98994.22;2619061;46;20034;-66
2021/08/29 04:03:12;;;;;;;9.68;8.68;;;;;;;14.59;80.79;99000.34;2618860;47;20045;-67
2021/08/29 04:06:05;;;;;;;8.82;7.95;;;;;;;14.62;80.48;98996.47;2619342;54;20084;-67
2021/08/29 04:08:38;;;;;;;9.32;8.38;;;;;;;14.63;80.97;98997.28;2619280;39;20446;-67
2021/08/29 04:11:11;;;;;;;11.40;8.05;;;;;;;14.60;80.85;98999.31;2618924;54;20022;-68
2021/08/29 04:13:43;;;;;;;8.38;7.47;;;;;;;14.62;80.67;98996.47;2618518;47;20030;-68
2021/08/29 04:16:13;;;;;;;9.55;8.10;;;;;;;14.66;80.75;99003.00;2619072;54;20078;-67
2021/08/29 04:18:49;;;;;;;9.07;8.18;;;;;;;14.63;80.73;98999.94;2618471;54;20026;-67
2021/08/29 04:21:28;;;;;;;9.07;8.18;;;;;;;14.64;80.98;98999.72;2618476;54;20062;-66
2021/08/29 04:23:58;;;;;;;9.07;8.18;;;;;;;14.67;80.85;99001.94;2618485;54;20037;-67
2021/08/29 04:26:37;;;;;;;8.43;7.57;;;;;;;14.69;80.45;98999.88;2618700;54;20058;-66
2021/08/29 04:29:07;;;;;;;9.32;7.70;;;;;;;14.74;80.91;98993.94;2619349;39;20449;-67
2021/08/29 04:31:38;;;;;;;9.00;8.10;;;;;;;14.73;80.38;99002.94;2618868;54;20037;-67
2021/08/29 04:34:12;;;;;;;8.90;8.00;;;;;;;14.70;80.55;99000.72;2618225;47;20033;-67
2021/08/29 04:36:49;;;;;;;9.65;8.05;;;;;;;14.72;80.53;98999.47;2617995;54;20038;-67
2021/08/29 04:39:38;;;;;;;8.35;7.55;;;;;;;14.73;80.27;98998.41;2619673;39;20448;-67
2021/08/29 04:42:08;;;;;;;10.43;8.32;;;;;;;14.75;80.06;99000.88;2618055;54;20026;-67
2021/08/29 04:44:37;;;;;;;8.90;8.05;;;;;;;14.76;80.07;99003.31;2618125;54;20075;-67
2021/08/29 04:47:08;;;;;;;8.27;7.47;;;;;;;14.70;80.49;99011.38;2617972;54;20027;-67
2021/08/29 04:49:45;;;;;;;9.05;8.25;;;;;;;14.70;80.30;99006.03;2618226;54;20121;-67
2021/08/29 04:52:24;;;;;;;9.02;7.38;;;;;;;14.71;80.36;99010.31;2618271;54;20041;-67
2021/08/29 04:54:58;;;;;;;8.55;7.75;;;;;;;14.71;80.28;99005.00;2618285;51;20022;-67
2021/08/29 04:57:30;;;;;;;8.38;7.55;;;;;;;14.70;80.15;99000.72;2617817;47;20022;-66
2021/08/29 05:00:01;;;;;;;9.15;8.20;;;;;;;14.66;80.27;99004.84;2618398;47;20038;-66
2021/08/29 05:02:32;;;;;;;10.65;8.13;;;;;;;14.65;80.49;99005.84;2617977;54;20069;-67
2021/08/29 05:05:03;;;;;;;8.93;7.55;;;;;;;14.62;79.98;99012.44;2618088;47;20035;-67
2021/08/29 05:07:35;;;;;;;7.80;7.00;;;;;;;14.61;80.10;99008.97;2617776;47;20190;-67
2021/08/29 05:10:07;;;;;;;9.13;7.30;;;;;;;14.64;80.32;99002.38;2618218;54;20034;-67
2021/08/29 05:12:48;;;;;;;9.10;7.35;;;;;;;14.61;79.83;99005.44;2617686;54;20294;-67
2021/08/29 05:15:18;;;;;;;8.32;7.53;;;;;;;14.61;80.10;99008.13;2618567;54;20572;-67
2021/08/29 05:17:48;;;;;;;7.60;6.90;;;;;;;14.64;80.12;99012.19;2617439;54;20122;-67
2021/08/29 05:20:22;;;;;;;7.15;6.45;;;;;;;14.66;79.91;99005.66;2617727;47;20154;-67
2021/08/29 05:23:12;;;;;;;8.95;7.78;;;;;;;14.70;80.13;99009.50;2618649;54;20057;-67
2021/08/29 05:26:15;;;;;;;8.32;6.93;;;;;;;14.73;80.14;99008.25;2618607;47;20033;-67
2021/08/29 05:28:45;;;;;;;7.97;6.80;;;;;;;14.70;80.02;99011.38;2618885;54;20118;-67
2021/08/29 05:31:14;;;;;;;7.45;6.75;;;;;;;14.71;79.69;99019.13;2619003;54;20042;-68
2021/08/29 05:33:44;;;;;;;8.38;6.70;;;;;;;14.70;80.08;99014.84;2617968;54;20034;-66
2021/08/29 05:36:15;;;;;;;7.63;6.70;;;;;;;14.68;79.65;99019.53;2618899;46;20053;-66
2021/08/29 05:38:47;;;;;;;7.63;6.82;;;;;;;14.68;79.68;99016.88;2618048;47;20086;-67
2021/08/29 05:41:23;;;;;;;7.63;6.38;;;;;;;14.70;79.57;99011.38;2617913;54;20035;-67
2021/08/29 05:44:21;;;;;;;6.32;5.72;;;;;;;14.68;79.54;99016.88;2618566;54;20042;-67
2021/08/29 05:46:51;;;;;;;7.72;6.40;;;;;;;14.67;79.70;99025.91;2617840;48;20037;-67
2021/08/29 05:49:24;;;;;;;7.10;6.10;;;;;;;14.67;79.39;99017.09;2617901;47;20027;-67
2021/08/29 05:51:54;;;;;;;5.78;5.22;;;;;;;14.67;79.27;99023.25;2618079;47;20045;-67
2021/08/29 05:54:26;;;;;;;6.25;5.65;;;;;;;14.73;79.31;99025.03;2617906;54;20022;-67
2021/08/29 05:56:57;;;;;;;6.70;5.82;;;;;;;14.74;79.04;99018.69;2617191;54;20037;-66
2021/08/29 05:59:26;;;;;;;7.20;5.93;;;;;;;14.78;79.11;99027.88;2617756;47;20023;-67
2021/08/29 06:01:56;;;;;;;5.80;5.30;;;;;;;14.79;79.29;99026.03;2618774;54;20776;-67
2021/08/29 06:04:29;;;;;;;6.87;6.17;;;;;;;14.77;78.97;99026.22;2618097;54;20552;-66
2021/08/29 06:07:05;;;;;;;8.48;5.63;;;;;;;14.75;79.02;99015.00;2617074;54;20030;-68
2021/08/29 06:09:37;;;;;;;6.30;5.55;;;;;;;14.72;79.19;99015.44;2622801;47;20041;-69
2021/08/29 06:12:08;;;;;;;6.60;5.30;;;;;;;14.70;79.43;99017.50;2621055;47;20041;-68
2021/08/29 06:14:38;;;;;;;6.40;5.35;;;;;;;14.72;79.22;99011.94;2623116;39;20538;-68
2021/08/29 06:17:07;;;;;;;5.28;4.55;;;;;;;14.68;79.16;99016.06;2623320;54;20086;-68
2021/08/29 06:19:37;;;;;;;5.07;4.57;;;;;;;14.69;78.84;99012.38;2623152;47;20086;-70
2021/08/29 06:22:07;;;;;;;5.60;5.07;;;;;;;14.71;78.83;99003.16;2623227;54;20026;-69
2021/08/29 06:24:50;;;;;;;5.90;4.95;;;;;;;14.73;78.90;99010.91;2623681;54;20039;-68
2021/08/29 06:27:38;;;;;;;6.35;5.45;;;;;;;14.72;78.91;99012.75;2623627;54;20042;-69
2021/08/29 06:30:26;;;;;;;7.15;6.15;;;;;;;14.72;78.91;99003.97;2623856;54;20046;-68
2021/08/29 06:33:34;;;;;;;9.88;5.35;;;;;;;14.77;79.03;98998.81;2621959;54;20049;-68
2021/08/29 06:36:08;;;;;;;;;;;;;;;14.81;78.87;98998.16;2622152;47;20570;-69
2021/08/29 06:38:37;;;;;;;7.43;5.55;;;;;;;14.85;78.42;99003.88;2623110;54;19946;-68
2021/08/29 06:41:10;;;;;;;6.78;5.88;;;;;;;14.85;78.39;99003.88;2623353;47;20038;-69
2021/08/29 06:43:40;;;;;;;7.78;6.90;;;;;;;14.83;78.67;99000.63;2622943;47;20058;-69
2021/08/29 06:46:30;;;;;;;7.25;6.55;;;;;;;14.83;78.60;99006.75;2623950;47;20038;-69
2021/08/29 06:49:18;;;;;;;8.48;6.70;;;;;;;14.84;78.30;98999.59;2624334;54;20034;-69
2021/08/29 06:52:07;;;;;;;7.20;6.30;;;;;;;14.89;78.47;98999.75;2624017;54;20045;-69
2021/08/29 06:54:55;;;;;;;8.80;7.57;;;;;;;14.90;78.69;99004.06;2623610;54;20053;-70
2021/08/29 06:57:46;;;;;;;8.50;7.60;;;;;;;14.94;78.51;99007.09;2623317;54;20054;-69
2021/08/29 07:00:17;;;;;;;7.28;6.57;;;;;;;14.95;78.61;99008.75;2623343;47;20027;-69
2021/08/29 07:02:48;;;;;;;10.63;7.22;;;;;;;14.92;78.87;99011.81;2624167;39;20690;-70
2021/08/29 07:05:19;;;;;;;8.80;6.95;;;;;;;14.96;78.58;99005.84;2623671;47;20130;-70
2021/08/29 07:08:11;;;;;;;8.32;7.53;;;;;;;15.05;77.99;99009.06;2623511;54;20041;-69
2021/08/29 07:10:46;;;;;;;7.75;6.95;;;;;;;15.08;77.76;99009.44;2623455;54;20026;-69
2021/08/29 07:13:37;;;;;;;8.30;7.53;;;;;;;15.04;77.60;99005.59;2624024;54;20053;-68
2021/08/29 07:16:07;;;;;;;7.75;6.90;;;;;;;15.07;77.82;99012.34;2625403;39;20437;-70
2021/08/29 07:18:38;;;;;;;9.40;8.18;;;;;;;15.06;78.02;99014.19;2623857;39;20454;-70
2021/08/29 07:21:26;;;;;;;7.93;7.13;;;;;;;15.04;77.75;99010.91;2624334;54;20035;-70
2021/08/29 07:24:14;;;;;;;7.32;6.60;;;;;;;15.02;77.48;99013.00;2624578;54;20054;-68
2021/08/29 07:27:02;;;;;;;10.38;8.45;;;;;;;15.15;77.79;99011.25;2624754;54;20037;-69
2021/08/29 07:30:01;;;;;;;8.85;7.75;;;;;;;15.22;77.45;99014.66;2625505;39;20410;-69
2021/08/29 07:32:46;;;;;;;10.68;8.88;;;;;;;15.27;76.81;99009.53;2625405;47;20082;-69
2021/08/29 07:35:15;;;;;;;11.05;8.50;;;;;;;15.29;77.03;99012.78;2625205;47;20034;-68
2021/08/29 07:38:12;;;;;;;9.60;8.60;;;;;;;15.40;76.65;99011.25;2624831;46;20038;-69
2021/08/29 07:40:43;;;;;;;8.55;7.75;;;;;;;15.47;76.59;99006.66;2625382;47;20030;-69
2021/08/29 07:43:13;;;;;;;7.10;6.40;;;;;;;15.42;76.01;99004.66;2625750;54;20034;-68
2021/08/29 07:45:46;;;;;;;8.48;7.30;;;;;;;15.38;76.26;99011.44;2625029;47;20106;-68
2021/08/29 07:48:17;;;;;;;8.15;7.00;;;;;;;15.43;76.34;99013.47;2624604;47;20034;-68
2021/08/29 07:50:47;;;;;;;8.50;7.30;;;;;;;15.35;76.06;99012.72;2625254;54;20018;-69
2021/08/29 07:53:17;;;;;;;9.43;6.68;;;;;;;15.32;76.58;99015.00;2624748;47;20099;-69
2021/08/29 07:56:06;;;;;;;7.78;7.07;;;;;;;15.35;76.31;99017.25;2625767;54;20548;-69
2021/08/29 07:58:41;;;;;;;7.05;6.35;;;;;;;15.39;76.61;99014.94;2624513;54;20066;-69
2021/08/29 08:01:19;;;;;;;7.03;6.32;;;;;;;15.27;76.33;99020.19;2624735;47;20832;-69
2021/08/29 08:03:49;;;;;;;8.55;7.50;;;;;;;15.29;76.23;99013.56;2625551;54;20039;-68
2021/08/29 08:06:42;;;;;;;7.55;6.80;;;;;;;15.31;76.29;99010.72;2625288;54;20154;-69
2021/08/29 08:09:34;;;;;;;8.48;7.18;;;;;;;15.34;76.55;99004.94;2625075;47;20041;-68
2021/08/29 08:12:22;;;;;;;9.10;8.00;;;;;;;15.44;76.60;99010.59;2625168;54;20053;-68
2021/08/29 08:14:52;;;;;;;9.65;8.15;;;;;;;15.58;75.96;99017.41;2624840;39;20438;-68
2021/08/29 08:17:24;;;;;;;8.43;7.63;;;;;;;15.67;75.73;99017.16;2623978;54;20031;-69
2021/08/29 08:19:54;;;;;;;10.20;9.05;;;;;;;15.71;75.23;99013.03;2624980;47;20023;-69
2021/08/29 08:22:24;;;;;;;12.40;11.15;;;;;;;15.82;74.36;99009.63;2624688;46;20098;-69
2021/08/29 08:25:09;;;;;;;11.20;9.80;;;;;;;15.96;74.47;99013.81;2624471;54;20037;-68
2021/08/29 08:27:57;;;;;;;12.40;11.20;;;;;;;15.94;73.76;99009.72;2624291;54;20062;-69
2021/08/29 08:30:45;;;;;;;12.73;11.43;;;;;;;15.85;74.24;99022.53;2624746;54;20564;-69
2021/08/29 08:33:37;;;;;;;12.88;10.88;;;;;;;16.01;74.20;99018.47;2624748;54;20033;-69
2021/08/29 08:36:38;;;;;;;12.63;11.27;;;;;;;16.32;73.42;99017.47;2623824;51;20860;-70
2021/08/29 08:39:28;;;;;;;12.93;11.63;;;;;;;16.38;72.45;99018.44;2623134;54;20042;-69
2021/08/29 08:42:09;;;;;;;11.40;10.05;;;;;;;16.37;72.83;99020.28;2625996;39;20483;-70
2021/08/29 08:44:57;;;;;;;11.48;9.82;;;;;;;16.32;72.08;99018.28;2624008;54;20558;-69
2021/08/29 08:47:47;;;;;;;10.80;9.57;;;;;;;16.29;71.80;99026.75;2624174;54;20045;-70
2021/08/29 08:50:38;;;;;;;10.75;9.65;;;;;;;16.31;72.04;99019.31;2623888;54;20034;-68
2021/08/29 08:53:27;;;;;;;10.77;9.38;;;;;;;16.28;72.19;99016.28;2624798;31;20532;-69
2021/08/29 08:56:18;;;;;;;10.93;8.93;;;;;;;16.32;72.02;99015.59;2623180;54;20054;-69
2021/08/29 08:59:09;;;;;;;11.75;9.52;;;;;;;16.44;71.95;99022.84;2624633;39;20534;-69
2021/08/29 09:02:19;;;;;;;10.02;8.95;;;;;;;16.32;71.60;99012.94;2621849;54;20632;-70
2021/08/29 09:05:11;;;;;;;11.60;7.97;;;;;;;16.22;71.64;99020.66;2622173;54;20033;-69
2021/08/29 09:07:45;;;;;;;9.63;8.07;;;;;;;16.05;71.81;99022.31;2621917;47;20058;-69
2021/08/29 09:10:16;;;;;;;;;;;;;;;15.85;72.08;99020.66;2622885;47;20030;-70
2021/08/29 09:12:59;;;;;;;10.20;7.80;;;;;;;15.80;72.34;99025.84;2622991;47;20038;-70
2021/08/29 09:15:31;;;;;;;8.80;7.80;;;;;;;15.75;72.38;99022.22;2624343;39;20417;-70
2021/08/29 09:18:02;;;;;;;8.48;7.55;;;;;;;15.64;71.60;99025.59;2623426;47;20022;-70
2021/08/29 09:20:37;;;;;;;9.27;7.47;;;;;;;15.61;72.23;99024.97;2624568;46;20056;-70
2021/08/29 09:23:15;;;;;;;9.02;8.13;;;;;;;15.60;71.92;99019.88;2624155;54;20025;-70
2021/08/29 09:25:45;;;;;;;8.73;7.60;;;;;;;15.67;72.05;99027.81;2624434;54;20038;-69
2021/08/29 09:28:27;;;;;;;9.60;8.35;;;;;;;15.80;72.05;99030.38;2623215;54;20103;-70
2021/08/29 09:31:04;;;;;;;8.73;7.43;;;;;;;15.80;72.23;99030.38;2623823;47;20552;-70
2021/08/29 09:33:35;;;;;;;8.05;7.25;;;;;;;15.82;71.95;99021.09;2624439;39;20418;-70
2021/08/29 09:36:12;;;;;;;10.15;7.20;;;;;;;15.89;71.92;99021.03;2623369;47;20034;-69
2021/08/29 09:38:50;;;;;;;10.38;9.38;;;;;;;16.02;71.40;99028.09;2624392;54;20049;-70
2021/08/29 09:42:02;;;;;;;13.63;8.25;;;;;;;15.97;71.77;99025.28;2624193;47;20030;-69
2021/08/29 09:44:58;;;;;;;11.05;8.88;;;;;;;15.98;71.85;99025.03;2624513;47;20073;-70
2021/08/29 09:47:48;;;;;;;8.95;8.02;;;;;;;15.89;71.41;99029.03;2623252;54;20538;-69
2021/08/29 09:51:01;;;;;;;10.00;8.05;;;;;;;15.81;71.49;99030.16;2621946;47;20038;-69
2021/08/29 09:53:49;;;;;;;10.93;7.50;;;;;;;15.87;72.04;99023.09;2621675;47;20030;-72
2021/08/29 09:56:32;;;;;;;8.35;7.40;;;;;;;15.95;71.54;99033.47;2620487;54;20034;-70
2021/08/29 09:59:45;;;;;;;11.52;8.02;;;;;;;15.91;71.32;99020.81;2620806;54;20034;-70
2021/08/29 10:02:41;;;;;;;;;;;;;;;15.82;71.95;99022.97;2621238;54;20038;-70
2021/08/29 10:05:16;;;;;;;10.27;8.27;;;;;;;15.82;72.04;99030.97;2623614;54;19954;-69
2021/08/29 10:08:03;;;;;;;9.70;8.70;;;;;;;15.89;71.77;99025.56;2623403;47;20074;-70
2021/08/29 10:11:00;;;;;;;10.40;8.13;;;;;;;15.95;71.76;99022.00;2624454;47;20029;-70
2021/08/29 10:13:30;;;;;;;9.93;8.43;;;;;;;16.02;71.48;99022.75;2624029;54;20034;-69
2021/08/29 10:16:15;;;;;;;12.68;9.25;;;;;;;16.11;71.51;99021.41;2623560;47;20046;-69
2021/08/29 10:19:21;;;;;;;12.30;8.85;;;;;;;16.27;71.30;99017.31;2623147;39;20442;-69
2021/08/29 10:22:13;;;;;;;12.23;9.25;;;;;;;16.26;70.64;99010.38;2623942;54;20038;-69
2021/08/29 10:24:51;;;;;;;9.05;7.88;;;;;;;16.26;70.98;99019.19;2624390;39;20297;-69
2021/08/29 10:27:26;;;;;;;10.88;8.35;;;;;;;16.37;70.66;99008.78;2622386;54;20026;-70
2021/08/29 10:30:16;;;;;;;11.30;9.32;;;;;;;16.42;70.62;99007.09;2622650;54;20030;-69
2021/08/29 10:33:06;;;;;;;10.18;8.40;;;;;;;16.48;70.70;99005.34;2623715;54;20034;-68
2021/08/29 10:35:49;;;;;;;11.50;7.50;;;;;;;16.50;70.35;99000.63;2622608;47;20058;-70
2021/08/29 10:38:38;;;;;;;12.57;8.65;;;;;;;16.53;70.14;99008.16;2624329;54;20058;-70
2021/08/29 10:41:28;;;;;;;10.00;8.60;;;;;;;16.61;70.19;98999.84;2624541;54;20045;-74
2021/08/29 10:44:08;;;;;;;10.77;8.82;;;;;;;16.70;70.42;99003.03;2623907;47;20018;-69
2021/08/29 10:46:58;;;;;;;11.25;8.55;;;;;;;16.71;69.50;99000.13;2624426;54;20033;-70
2021/08/29 10:49:47;;;;;;;10.98;9.10;;;;;;;16.68;69.93;99005.09;2624378;54;20041;-71
2021/08/29 10:52:17;;;;;;;8.52;7.50;;;;;;;16.69;69.83;99004.03;2623705;54;20022;-70
2021/08/29 10:54:53;;;;;;;7.88;7.07;;;;;;;16.69;69.57;99002.19;2624302;54;20034;-70
2021/08/29 10:57:34;;;;;;;7.75;6.95;;;;;;;16.60;69.66;99004.34;2623253;39;20513;-69
2021/08/29 11:00:17;;;;;;;8.73;7.50;;;;;;;16.54;69.80;99005.28;2624234;39;20441;-70
2021/08/29 11:02:49;;;;;;;7.43;6.60;;;;;;;16.45;69.40;99008.47;2623599;54;20040;-69
2021/08/29 11:05:54;;;;;;;12.45;8.18;;;;;;;16.42;69.72;99007.09;2622643;54;20580;-67
2021/08/29 11:08:30;;;;;;;11.98;8.02;;;;;;;16.41;69.52;99010.78;2619288;54;20034;-71
2021/08/29 11:11:03;;;;;;;9.50;7.65;;;;;;;16.44;69.80;99004.19;2619982;47;20037;-69
2021/08/29 11:13:44;;;;;;;10.60;8.38;;;;;;;16.43;69.84;99006.03;2623610;54;20188;-69
2021/08/29 11:16:21;;;;;;;10.05;7.88;;;;;;;16.43;69.69;99008.72;2624853;47;20030;-69
2021/08/29 11:19:13;;;;;;;11.27;9.27;;;;;;;16.41;69.85;99000.13;2625514;54;20053;-68
2021/08/29 11:22:21;;;;;;;12.30;8.13;;;;;;;16.50;70.01;98997.94;2625899;39;20530;-70
2021/08/29 11:25:21;;;;;;;8.55;7.60;;;;;;;16.60;70.43;99001.69;2625223;54;20034;-69
2021/08/29 11:28:04;;;;;;;9.23;8.18;;;;;;;16.64;69.81;98996.72;2624052;46;20022;-69
2021/08/29 11:31:00;;;;;;;9.35;7.60;;;;;;;16.62;69.95;98992.66;2624709;47;20603;-68
2021/08/29 11:33:44;;;;;;;8.70;7.57;;;;;;;16.62;70.28;99006.81;2624607;51;20034;-70
2021/08/29 11:36:30;;;;;;;10.00;7.60;;;;;;;16.65;70.21;99005.53;2623103;47;20026;-70
2021/08/29 11:39:34;;;;;;;10.23;7.93;;;;;;;16.71;70.49;98997.44;2624443;47;20146;-70
2021/08/29 11:42:22;;;;;;;12.05;9.13;;;;;;;16.71;69.97;99005.44;2624843;47;20573;-70
2021/08/29 11:45:00;;;;;;;10.52;8.20;;;;;;;16.74;70.06;98998.88;2624886;47;20034;-70
2021/08/29 11:47:40;;;;;;;10.50;8.57;;;;;;;16.79;70.51;99001.69;2623840;46;20034;-70
2021/08/29 11:50:30;;;;;;;10.20;7.68;;;;;;;16.75;70.03;99000.50;2624293;47;20034;-70
2021/08/29 11:53:26;;;;;;;10.35;8.10;;;;;;;16.74;70.35;98997.03;2625092;54;20030;-69
2021/08/29 11:55:59;;;;;;;9.90;7.65;;;;;;;16.77;70.40;98999.22;2623789;54;20561;-70
2021/08/29 11:58:28;;;;;;;10.63;7.88;;;;;;;16.77;69.95;98996.53;2624045;47;20032;-70
2021/08/29 12:01:04;;;;;;;6.70;6.10;;;;;;;16.80;69.46;99000.63;2624806;46;20038;-70
2021/08/29 12:03:39;;;;;;;8.95;6.38;;;;;;;16.77;69.44;98999.22;2624611;54;20086;-70
2021/08/29 12:06:21;;;;;;;8.10;7.22;;;;;;;16.88;69.81;98996.81;2624896;54;20621;-70
2021/08/29 12:09:17;;;;;;;7.63;6.82;;;;;;;16.90;69.32;98992.91;2620504;31;20574;-66
2021/08/29 12:12:21;;;;;;;7.50;6.70;;;;;;;16.91;68.92;98991.84;2618414;54;20038;-65
2021/08/29 12:15:13;;;;;;;7.03;6.15;;;;;;;16.80;68.93;98987.28;2619773;39;20454;-65
2021/08/29 12:18:06;;;;;;;7.50;6.20;;;;;;;16.80;68.26;98990.75;2619172;39;20418;-65
2021/08/29 12:20:39;;;;;;;7.43;6.47;;;;;;;16.89;68.49;99001.94;2618163;47;20046;-66
2021/08/29 12:23:11;;;;;;;6.95;6.03;;;;;;;16.96;68.45;98986.63;2619150;54;20034;-66
2021/08/29 12:25:44;;;;;;;8.38;6.25;;;;;;;17.08;69.17;98982.13;2618438;47;20042;-65
2021/08/29 12:28:16;;;;;;;8.48;6.70;;;;;;;17.20;68.63;98986.66;2617833;47;20030;-66